createdAt,value
2022-08-03T00:03:34.929Z,2.20
2022-08-03T00:08:37.656Z,2.60
2022-08-03T00:13:42.567Z,2.50
2022-08-03T00:18:44.776Z,2.20
2022-08-03T00:23:51.184Z,2.10
2022-08-03T00:28:54.058Z,2.00
2022-08-03T00:33:59.643Z,2.20
2022-08-03T00:39:05.064Z,2.20
2022-08-03T00:44:06.943Z,2.20
2022-08-03T00:49:08.900Z,2.20
2022-08-03T00:54:11.115Z,2.00
2022-08-03T00:59:15.897Z,2.40
2022-08-03T01:04:17.726Z,2.60
2022-08-03T01:09:49.838Z,2.40
2022-08-03T01:15:05.816Z,2.10
2022-08-03T01:20:13.331Z,2.30
2022-08-03T01:26:10.190Z,2.10
2022-08-03T01:31:18.391Z,2.10
2022-08-03T01:41:33.499Z,2.30
2022-08-03T01:46:37.265Z,2.50
2022-08-03T01:51:58.642Z,1.90
2022-08-03T01:57:07.550Z,1.90
2022-08-03T02:02:27.704Z,2.10
2022-08-03T02:07:39.445Z,2.20
2022-08-03T02:12:46.009Z,2.00
2022-08-03T02:17:50.063Z,2.00
2022-08-03T02:22:52.150Z,2.20
2022-08-03T02:28:13.688Z,2.40
2022-08-03T02:33:28.162Z,1.80
2022-08-03T02:38:38.403Z,3.90
2022-08-03T02:44:00.352Z,2.10
2022-08-03T02:49:40.848Z,1.80
2022-08-03T02:54:30.200Z,2.20
2022-08-03T02:59:32.649Z,2.20
2022-08-03T03:04:36.046Z,2.40
2022-08-03T03:09:40.409Z,2.70
2022-08-03T03:14:45.844Z,2.00
2022-08-03T03:19:51.901Z,2.10
2022-08-03T03:24:55.917Z,2.50
2022-08-03T03:29:58.240Z,2.00
2022-08-03T03:35:01.559Z,2.10
2022-08-03T03:40:04.756Z,2.40
2022-08-03T03:45:08.279Z,1.80
2022-08-03T03:50:10.790Z,2.30
2022-08-03T03:55:17.626Z,2.20
2022-08-03T04:00:19.644Z,1.80
2022-08-03T04:05:44.247Z,1.80
2022-08-03T04:11:14.521Z,1.90
2022-08-03T04:16:21.894Z,1.90
2022-08-03T04:21:25.541Z,2.00
2022-08-03T04:26:33.804Z,1.90
2022-08-03T04:36:49.900Z,2.70
2022-08-03T04:42:07.312Z,2.10
2022-08-03T04:47:10.551Z,2.00
2022-08-03T04:52:13.105Z,2.30
2022-08-03T04:57:22.269Z,2.40
2022-08-03T05:02:25.487Z,2.30
2022-08-03T05:07:36.191Z,2.40
2022-08-03T05:12:39.480Z,2.30
2022-08-03T05:17:41.592Z,2.40
2022-08-03T05:22:43.643Z,2.90
2022-08-03T05:27:45.629Z,2.50
2022-08-03T05:32:47.748Z,2.60
2022-08-03T05:37:54.398Z,4.10
2022-08-03T05:42:57.103Z,4.30
2022-08-03T05:48:00.102Z,2.60
2022-08-03T05:53:02.930Z,2.50
2022-08-03T05:58:05.182Z,3.40
2022-08-03T06:03:07.171Z,3.00
2022-08-03T06:08:09.066Z,2.20
2022-08-03T06:13:11.030Z,2.30
2022-08-03T06:18:13.099Z,3.30
2022-08-03T06:23:15.290Z,3.00
2022-08-03T06:28:51.396Z,2.70
2022-08-03T06:34:30.782Z,2.30
2022-08-03T06:39:04.987Z,2.50
2022-08-03T06:44:06.830Z,2.30
2022-08-03T06:49:08.972Z,2.50
2022-08-03T06:54:12.014Z,2.50
2022-08-03T07:00:10.527Z,2.50
2022-08-03T07:04:35.941Z,2.40
2022-08-03T07:09:37.837Z,2.40
2022-08-03T07:14:39.701Z,2.80
2022-08-03T07:19:41.680Z,2.60
2022-08-03T07:24:44.487Z,2.20
2022-08-03T07:29:46.455Z,2.60
2022-08-03T07:34:48.227Z,2.40
2022-08-03T07:39:50.114Z,3.10
2022-08-03T07:44:51.982Z,3.50
2022-08-03T07:49:54.685Z,2.90
2022-08-03T07:54:56.566Z,3.30
2022-08-03T08:00:02.209Z,3.10
2022-08-03T08:05:06.177Z,2.20
2022-08-03T08:10:10.237Z,2.30
2022-08-03T08:15:12.873Z,2.40
2022-08-03T08:20:31.722Z,2.60
2022-08-03T08:25:34.860Z,1.90
2022-08-03T08:30:36.753Z,2.10
2022-08-03T08:35:38.717Z,2.00
2022-08-03T08:40:41.002Z,1.90
2022-08-03T08:45:44.991Z,1.70
2022-08-03T08:50:48.142Z,1.90
2022-08-03T08:55:56.952Z,2.30
2022-08-03T09:01:02.823Z,2.00
2022-08-03T09:06:05.135Z,2.40
2022-08-03T09:11:07.459Z,2.20
2022-08-03T09:16:20.576Z,2.20
2022-08-03T09:21:32.792Z,3.30
2022-08-03T09:26:38.056Z,2.20
2022-08-03T09:31:46.110Z,2.60
2022-08-03T09:36:53.492Z,2.40
2022-08-03T09:42:07.091Z,2.20
2022-08-03T09:47:16.186Z,2.00
2022-08-03T09:52:38.613Z,2.00
2022-08-03T09:57:45.937Z,2.00
2022-08-03T10:02:50.264Z,2.30
2022-08-03T10:07:52.135Z,2.00
2022-08-03T10:12:54.257Z,2.00
2022-08-03T10:17:56.968Z,2.10
2022-08-03T10:23:00.124Z,1.90
2022-08-03T10:28:04.394Z,2.30
2022-08-03T10:33:49.744Z,1.90
2022-08-03T10:38:57.570Z,1.90
2022-08-03T10:44:09.229Z,1.80
2022-08-03T10:49:21.439Z,2.00
2022-08-03T10:54:36.901Z,2.60
2022-08-03T10:59:50.652Z,1.90
2022-08-03T11:05:34.619Z,2.00
2022-08-03T11:10:38.235Z,3.50
2022-08-03T11:15:45.700Z,1.90
2022-08-03T11:20:57.409Z,2.00
2022-08-03T11:26:19.086Z,2.10
2022-08-03T11:31:48.755Z,1.70
2022-08-03T11:37:25.223Z,3.00
2022-08-03T11:42:29.243Z,2.10
2022-08-03T11:47:31.116Z,1.40
2022-08-03T11:52:39.948Z,1.70
2022-08-03T11:59:02.706Z,2.10
2022-08-03T12:03:13.656Z,1.50
2022-08-03T12:08:27.898Z,1.50
2022-08-03T12:14:45.437Z,1.60
2022-08-03T12:19:12.900Z,1.70
2022-08-03T12:24:15.409Z,1.80
2022-08-03T12:29:22.744Z,1.50
2022-08-03T12:34:47.020Z,1.50
2022-08-03T12:40:01.722Z,1.70
2022-08-03T12:45:28.543Z,2.80
2022-08-03T12:50:37.094Z,1.50
2022-08-03T12:56:04.729Z,1.50
2022-08-03T13:01:09.517Z,1.80
2022-08-03T13:06:19.908Z,1.50
2022-08-03T13:11:57.341Z,1.60
2022-08-03T13:16:49.751Z,1.70
2022-08-03T13:22:03.071Z,1.20
2022-08-03T13:27:59.417Z,1.40
2022-08-03T13:32:29.781Z,1.90
2022-08-03T13:37:32.112Z,1.60
2022-08-03T13:42:35.967Z,1.50
2022-08-03T13:47:37.899Z,2.00
2022-08-03T13:52:39.738Z,1.70
2022-08-03T13:58:04.905Z,1.30
2022-08-03T14:03:17.598Z,1.80
2022-08-03T14:08:19.577Z,1.40
2022-08-03T14:13:22.275Z,1.50
2022-08-03T14:18:28.346Z,1.50
2022-08-03T14:23:39.373Z,1.70
2022-08-03T14:28:41.533Z,2.00
2022-08-03T14:33:43.712Z,1.50
2022-08-03T14:38:46.013Z,1.40
2022-08-03T14:44:01.643Z,1.60
2022-08-03T14:50:36.977Z,1.30
2022-08-03T14:54:30.540Z,1.30
2022-08-03T14:59:56.207Z,1.10
2022-08-03T15:04:54.471Z,1.40
2022-08-03T15:09:56.452Z,1.30
2022-08-03T15:14:58.322Z,1.30
2022-08-03T15:20:26.504Z,1.70
2022-08-03T15:26:30.239Z,1.40
2022-08-03T15:30:44.095Z,1.60
2022-08-03T15:35:47.104Z,1.70
2022-08-03T15:40:49.082Z,1.60
2022-08-03T15:46:18.972Z,1.80
2022-08-03T15:51:13.825Z,1.40
2022-08-03T15:56:18.717Z,1.50
2022-08-03T16:01:24.731Z,1.60
2022-08-03T16:06:29.797Z,1.90
2022-08-03T16:11:37.833Z,1.90
2022-08-03T16:16:40.729Z,1.80
2022-08-03T16:21:48.394Z,1.80
2022-08-03T16:26:50.931Z,1.30
2022-08-03T16:31:53.011Z,1.40
2022-08-03T16:36:55.017Z,1.50
2022-08-03T16:42:00.927Z,1.60
2022-08-03T16:47:04.300Z,1.50
2022-08-03T16:52:07.319Z,1.70
2022-08-03T16:57:09.484Z,1.70
2022-08-03T17:02:26.147Z,1.70
2022-08-03T17:07:29.701Z,1.80
2022-08-03T17:12:32.404Z,1.60
2022-08-03T17:17:53.547Z,1.90
2022-08-03T17:23:33.862Z,1.90
2022-08-03T17:28:56.469Z,1.70
2022-08-03T17:34:04.625Z,1.90
2022-08-03T17:39:09.025Z,1.90
2022-08-03T17:44:15.308Z,3.40
2022-08-03T17:49:23.764Z,5.70
2022-08-03T17:55:56.042Z,4.80
2022-08-03T18:01:04.789Z,7.30
2022-08-03T18:06:34.936Z,7.70
2022-08-03T18:11:45.293Z,7.10
2022-08-03T18:22:04.466Z,6.40
2022-08-03T18:27:10.216Z,4.50
2022-08-03T18:32:16.912Z,4.20
2022-08-03T18:37:26.013Z,3.90
2022-08-03T18:42:28.286Z,3.70
2022-08-03T18:47:56.721Z,3.90
2022-08-03T18:54:02.309Z,3.40
2022-08-03T18:59:30.125Z,3.70
2022-08-03T19:04:38.718Z,3.70
2022-08-03T19:10:05.746Z,4.50
2022-08-03T19:15:13.240Z,9.10
2022-08-03T19:20:20.612Z,7.70
2022-08-03T19:25:34.467Z,7.70
2022-08-03T19:30:39.528Z,5.20
2022-08-03T19:35:55.795Z,6.10
2022-08-03T19:41:05.233Z,5.50
2022-08-03T19:46:13.583Z,6.20
2022-08-03T19:51:16.620Z,5.00
2022-08-03T19:56:23.679Z,5.10
2022-08-03T20:01:28.944Z,3.60
2022-08-03T20:06:31.666Z,3.30
2022-08-03T20:11:43.910Z,3.70
2022-08-03T20:16:48.821Z,4.80
2022-08-03T20:21:54.376Z,4.30
2022-08-03T20:27:05.196Z,4.90
2022-08-03T20:32:10.015Z,5.70
2022-08-03T20:37:12.291Z,5.20
2022-08-03T20:42:14.303Z,7.80
2022-08-03T20:47:24.692Z,6.40
2022-08-03T20:52:29.042Z,6.70
2022-08-03T20:57:33.183Z,4.90
2022-08-03T21:02:35.966Z,5.10
2022-08-03T21:07:45.721Z,4.30
2022-08-03T21:13:23.198Z,5.40
2022-08-03T21:18:27.631Z,5.00
2022-08-03T21:23:47.558Z,4.90
2022-08-03T21:28:55.881Z,4.70
2022-08-03T21:34:04.706Z,4.20
2022-08-03T21:39:10.439Z,4.90
2022-08-03T21:44:12.548Z,4.50
2022-08-03T21:50:05.268Z,5.30
2022-08-03T21:54:41.760Z,5.00
2022-08-03T21:59:56.679Z,5.30
2022-08-03T22:04:58.907Z,5.40
2022-08-03T22:10:06.074Z,5.50
2022-08-03T22:15:11.880Z,5.50
2022-08-03T22:20:14.912Z,5.60
2022-08-03T22:25:17.041Z,5.90
2022-08-03T22:30:20.172Z,5.60
2022-08-03T22:35:25.389Z,5.80
2022-08-03T22:40:28.292Z,5.30
2022-08-03T22:46:09.888Z,6.00
2022-08-03T22:50:52.929Z,6.40
2022-08-03T22:55:56.264Z,7.10
2022-08-03T23:01:05.690Z,6.60
2022-08-03T23:06:09.335Z,6.20
2022-08-03T23:11:12.315Z,6.10
2022-08-03T23:16:27.956Z,5.70
2022-08-03T23:21:53.198Z,6.50
2022-08-03T23:26:56.765Z,6.10
2022-08-03T23:32:01.821Z,6.80
2022-08-03T23:37:05.637Z,6.60
2022-08-03T23:42:09.626Z,6.50
2022-08-03T23:47:13.675Z,5.80
2022-08-03T23:52:57.399Z,6.00
2022-08-03T23:58:12.148Z,6.10
